createdAt,value
2023-01-10T00:01:13.700Z,6.94
2023-01-10T00:04:16.227Z,6.93
2023-01-10T00:07:18.701Z,6.85
2023-01-10T00:10:21.598Z,6.89
2023-01-10T00:13:24.231Z,6.96
2023-01-10T00:16:26.863Z,6.91
2023-01-10T00:19:29.391Z,6.94
2023-01-10T00:22:31.838Z,6.81
2023-01-10T00:25:36.041Z,6.82
2023-01-10T00:28:39.525Z,6.88
2023-01-10T00:31:42.089Z,6.74
2023-01-10T00:34:44.660Z,6.78
2023-01-10T00:37:47.203Z,6.81
2023-01-10T00:40:49.904Z,6.89
2023-01-10T00:43:58.059Z,6.90
2023-01-10T00:47:00.613Z,6.84
2023-01-10T00:50:05.976Z,6.84
2023-01-10T00:53:09.081Z,6.86
2023-01-10T00:56:11.538Z,7.01
2023-01-10T00:59:13.922Z,6.81
2023-01-10T01:02:16.646Z,6.82
2023-01-10T01:05:19.634Z,6.87
2023-01-10T01:08:22.571Z,6.83
2023-01-10T01:11:26.016Z,6.96
2023-01-10T01:14:28.605Z,6.89
2023-01-10T01:17:31.074Z,6.97
2023-01-10T01:20:35.163Z,6.88
2023-01-10T01:23:37.775Z,6.94
2023-01-10T01:26:42.656Z,6.87
2023-01-10T01:29:45.342Z,6.93
2023-01-10T01:32:47.985Z,6.84
2023-01-10T01:35:50.801Z,6.80
2023-01-10T01:38:53.164Z,6.82
2023-01-10T01:41:58.452Z,6.78
2023-01-10T01:45:09.932Z,6.87
2023-01-10T01:48:21.077Z,6.76
2023-01-10T01:51:29.014Z,6.81
2023-01-10T01:54:32.917Z,6.80
2023-01-10T01:57:35.705Z,6.87
2023-01-10T02:00:38.294Z,6.83
2023-01-10T02:03:45.255Z,6.81
2023-01-10T02:06:51.408Z,6.75
2023-01-10T02:10:03.749Z,6.78
2023-01-10T02:13:09.344Z,6.67
2023-01-10T02:16:12.088Z,6.73
2023-01-10T02:19:52.898Z,6.82
2023-01-10T02:23:34.044Z,6.71
2023-01-10T02:26:54.750Z,6.74
2023-01-10T02:30:11.354Z,6.74
2023-01-10T02:33:33.301Z,6.81
2023-01-10T02:36:38.534Z,6.88
2023-01-10T02:39:52.430Z,6.72
2023-01-10T02:43:14.711Z,6.73
2023-01-10T02:46:25.310Z,6.69
2023-01-10T02:49:27.953Z,6.69
2023-01-10T02:52:31.543Z,6.71
2023-01-10T02:55:56.089Z,6.76
2023-01-10T02:59:32.742Z,6.87
2023-01-10T03:02:44.713Z,6.73
2023-01-10T03:06:08.074Z,6.85
2023-01-10T03:09:21.890Z,6.80
2023-01-10T03:12:27.177Z,6.81
2023-01-10T03:15:33.615Z,6.85
2023-01-10T03:18:46.839Z,6.67
2023-01-10T03:21:54.107Z,6.75
2023-01-10T03:24:59.764Z,6.78
2023-01-10T03:28:52.254Z,6.79
2023-01-10T03:32:00.761Z,6.74
2023-01-10T03:35:04.618Z,6.84
2023-01-10T03:38:15.830Z,6.87
2023-01-10T03:41:56.115Z,6.82
2023-01-10T03:45:08.898Z,6.84
2023-01-10T03:48:14.984Z,6.75
2023-01-10T03:51:18.913Z,6.73
2023-01-10T03:54:21.444Z,6.80
2023-01-10T03:57:24.890Z,6.78
2023-01-10T04:00:27.558Z,6.81
2023-01-10T04:03:30.001Z,6.83
2023-01-10T04:06:32.632Z,6.89
2023-01-10T04:09:35.161Z,6.89
2023-01-10T04:12:37.642Z,6.93
2023-01-10T04:15:40.015Z,6.99
2023-01-10T04:18:42.496Z,6.88
2023-01-10T04:21:45.118Z,6.91
2023-01-10T04:24:48.723Z,6.83
2023-01-10T04:27:52.257Z,6.80
2023-01-10T04:30:54.697Z,6.76
2023-01-10T04:33:57.192Z,6.84
2023-01-10T04:36:59.576Z,6.80
2023-01-10T04:40:02.250Z,6.79
2023-01-10T04:43:04.696Z,6.77
2023-01-10T04:46:07.350Z,6.81
2023-01-10T04:49:10.702Z,6.75
2023-01-10T04:52:13.263Z,6.74
2023-01-10T04:55:15.752Z,6.84
2023-01-10T04:58:18.181Z,6.84
2023-01-10T05:01:25.217Z,6.89
2023-01-10T05:04:27.731Z,6.95
2023-01-10T05:07:30.117Z,6.90
2023-01-10T05:10:32.655Z,6.92
2023-01-10T05:13:35.207Z,6.80
2023-01-10T05:16:37.719Z,6.83
2023-01-10T05:19:40.796Z,6.93
2023-01-10T05:22:43.319Z,6.85
2023-01-10T05:25:45.840Z,6.82
2023-01-10T05:28:48.717Z,6.81
2023-01-10T05:31:51.861Z,6.91
2023-01-10T05:34:54.314Z,6.91
2023-01-10T05:37:56.892Z,6.90
2023-01-10T05:41:00.263Z,6.93
2023-01-10T05:44:02.741Z,6.98
2023-01-10T05:47:05.285Z,7.05
2023-01-10T05:50:08.550Z,6.99
2023-01-10T05:53:11.264Z,6.97
2023-01-10T05:56:13.662Z,6.91
2023-01-10T05:59:27.580Z,6.98
2023-01-10T06:02:30.787Z,7.02
2023-01-10T06:05:33.333Z,6.87
2023-01-10T06:08:37.328Z,6.88
2023-01-10T06:11:41.392Z,6.85
2023-01-10T06:14:44.027Z,6.67
2023-01-10T06:17:46.596Z,6.56
2023-01-10T06:20:50.326Z,6.58
2023-01-10T06:23:52.766Z,6.54
2023-01-10T06:26:55.166Z,6.47
2023-01-10T06:29:59.291Z,6.47
2023-01-10T06:33:06.664Z,6.41
2023-01-10T06:36:09.634Z,6.28
2023-01-10T06:39:12.566Z,6.28
2023-01-10T06:42:15.971Z,6.37
2023-01-10T06:45:18.872Z,6.40
2023-01-10T06:48:21.948Z,6.36
2023-01-10T06:51:24.502Z,6.29
2023-01-10T06:54:26.972Z,6.20
2023-01-10T06:57:29.799Z,6.12
2023-01-10T07:00:32.503Z,6.25
2023-01-10T07:03:35.133Z,6.32
2023-01-10T07:06:38.656Z,6.20
2023-01-10T07:09:42.289Z,6.22
2023-01-10T07:12:44.956Z,6.20
2023-01-10T07:15:47.397Z,6.31
2023-01-10T07:18:49.883Z,6.24
2023-01-10T07:21:52.625Z,6.31
2023-01-10T07:24:55.413Z,6.26
2023-01-10T07:27:58.307Z,6.31
2023-01-10T07:31:02.605Z,6.31
2023-01-10T07:34:05.254Z,6.31
2023-01-10T07:37:07.882Z,6.29
2023-01-10T07:40:11.835Z,6.41
2023-01-10T07:43:14.429Z,6.27
2023-01-10T07:46:17.532Z,6.28
2023-01-10T07:49:20.055Z,6.37
2023-01-10T07:52:22.648Z,6.29
2023-01-10T07:55:25.561Z,6.37
2023-01-10T07:58:29.154Z,6.26
2023-01-10T08:01:32.389Z,6.30
2023-01-10T08:04:34.868Z,6.26
2023-01-10T08:07:38.039Z,6.30
2023-01-10T08:10:40.975Z,6.34
2023-01-10T08:13:43.450Z,6.30
2023-01-10T08:16:45.932Z,6.32
2023-01-10T08:19:48.467Z,6.34
2023-01-10T08:22:51.312Z,6.32
2023-01-10T08:25:54.411Z,6.32
2023-01-10T08:28:56.968Z,6.28
2023-01-10T08:31:59.844Z,6.37
2023-01-10T08:35:02.455Z,6.24
2023-01-10T08:38:05.045Z,6.28
2023-01-10T08:41:07.481Z,6.38
2023-01-10T08:44:12.064Z,6.36
2023-01-10T08:47:15.090Z,6.26
2023-01-10T08:50:17.611Z,6.35
2023-01-10T08:53:20.069Z,6.26
2023-01-10T08:56:22.660Z,6.26
2023-01-10T08:59:25.295Z,6.26
2023-01-10T09:02:27.926Z,6.25
2023-01-10T09:05:30.298Z,6.13
2023-01-10T09:08:32.833Z,6.15
2023-01-10T09:11:35.872Z,6.20
2023-01-10T09:14:38.700Z,6.23
2023-01-10T09:17:41.123Z,6.16
2023-01-10T09:20:43.728Z,6.11
2023-01-10T09:23:47.171Z,5.98
2023-01-10T09:26:49.679Z,5.92
2023-01-10T09:29:52.148Z,5.84
2023-01-10T09:32:56.279Z,5.92
2023-01-10T09:35:59.203Z,5.91
2023-01-10T09:39:01.762Z,5.92
2023-01-10T09:42:31.540Z,5.91
2023-01-10T09:45:40.435Z,5.87
2023-01-10T09:49:05.105Z,5.85
2023-01-10T09:52:21.134Z,5.82
2023-01-10T09:55:33.139Z,5.79
2023-01-10T09:58:38.530Z,5.79
2023-01-10T10:01:41.031Z,5.85
2023-01-10T10:04:49.681Z,5.86
2023-01-10T10:07:58.446Z,5.83
2023-01-10T10:11:25.112Z,5.86
2023-01-10T10:14:38.939Z,5.81
2023-01-10T10:17:49.534Z,5.93
2023-01-10T10:21:17.019Z,5.85
2023-01-10T10:24:34.511Z,5.82
2023-01-10T10:28:09.567Z,5.83
2023-01-10T10:31:18.257Z,5.82
2023-01-10T10:34:36.547Z,5.82
2023-01-10T10:37:44.204Z,5.87
2023-01-10T10:40:49.093Z,5.92
2023-01-10T10:43:54.593Z,5.82
2023-01-10T10:47:01.104Z,5.85
2023-01-10T10:50:23.814Z,5.94
2023-01-10T10:53:26.747Z,5.89
2023-01-10T10:56:30.350Z,5.88
2023-01-10T10:59:32.872Z,5.78
2023-01-10T11:03:12.685Z,5.81
2023-01-10T11:06:17.207Z,5.76
2023-01-10T11:09:35.865Z,5.93
2023-01-10T11:12:42.148Z,5.91
2023-01-10T11:15:47.479Z,5.84
2023-01-10T11:19:08.870Z,5.78
2023-01-10T11:22:16.390Z,5.88
2023-01-10T11:25:21.916Z,5.96
2023-01-10T11:28:31.384Z,5.96
2023-01-10T11:31:36.540Z,5.96
2023-01-10T11:34:39.873Z,5.98
2023-01-10T11:37:42.307Z,6.05
2023-01-10T11:40:59.075Z,5.99
2023-01-10T11:44:29.082Z,6.18
2023-01-10T11:47:38.052Z,6.08
2023-01-10T11:50:50.482Z,6.20
2023-01-10T11:53:59.778Z,6.18
2023-01-10T11:57:02.332Z,6.26
2023-01-10T12:00:10.435Z,6.19
2023-01-10T12:03:37.592Z,6.15
2023-01-10T12:06:45.851Z,6.28
2023-01-10T12:10:00.674Z,6.30
2023-01-10T12:13:30.964Z,6.27
2023-01-10T12:16:35.117Z,6.25
2023-01-10T12:19:37.625Z,6.21
2023-01-10T12:22:43.190Z,6.20
2023-01-10T12:25:46.979Z,6.27
2023-01-10T12:28:54.195Z,6.31
2023-01-10T12:31:59.834Z,6.24
2023-01-10T12:35:09.743Z,6.18
2023-01-10T12:38:55.841Z,6.37
2023-01-10T12:42:16.761Z,6.31
2023-01-10T12:45:37.940Z,6.38
2023-01-10T12:48:50.130Z,6.41
2023-01-10T12:51:58.518Z,6.30
2023-01-10T12:55:03.168Z,6.40
2023-01-10T12:58:12.441Z,6.30
2023-01-10T13:01:19.055Z,6.45
2023-01-10T13:04:23.920Z,6.40
2023-01-10T13:07:33.380Z,6.41
2023-01-10T13:10:41.657Z,6.46
2023-01-10T13:13:52.246Z,6.38
2023-01-10T13:17:04.816Z,6.42
2023-01-10T13:20:18.115Z,6.43
2023-01-10T13:23:51.786Z,6.39
2023-01-10T13:27:02.260Z,6.47
2023-01-10T13:30:05.560Z,6.40
2023-01-10T13:33:18.664Z,6.49
2023-01-10T13:36:31.540Z,6.45
2023-01-10T13:39:40.575Z,6.38
2023-01-10T13:43:05.955Z,6.52
2023-01-10T13:46:17.954Z,6.49
2023-01-10T13:49:39.880Z,6.47
2023-01-10T13:52:42.464Z,6.51
2023-01-10T13:55:53.738Z,6.44
2023-01-10T13:59:15.066Z,6.51
2023-01-10T14:02:31.495Z,6.53
2023-01-10T14:05:34.298Z,6.50
2023-01-10T14:08:38.189Z,6.44
2023-01-10T14:11:43.473Z,6.53
2023-01-10T14:14:57.123Z,6.46
2023-01-10T14:18:01.259Z,6.52
2023-01-10T14:21:09.096Z,6.43
2023-01-10T14:24:25.730Z,6.52
2023-01-10T14:27:50.987Z,6.42
2023-01-10T14:31:08.614Z,6.49
2023-01-10T14:34:16.523Z,6.36
2023-01-10T14:37:37.385Z,6.48
2023-01-10T14:40:47.210Z,6.46
2023-01-10T14:44:17.775Z,6.50
2023-01-10T14:47:34.048Z,6.53
2023-01-10T14:50:36.688Z,6.51
2023-01-10T14:53:39.246Z,6.47
2023-01-10T14:56:47.319Z,6.52
2023-01-10T14:59:51.222Z,6.48
2023-01-10T15:02:53.975Z,6.58
2023-01-10T15:05:57.638Z,6.47
2023-01-10T15:09:00.942Z,6.48
2023-01-10T15:12:06.805Z,6.45
2023-01-10T15:15:16.774Z,6.39
2023-01-10T15:18:38.588Z,6.49
2023-01-10T15:21:43.357Z,6.46
2023-01-10T15:24:58.263Z,6.48
2023-01-10T15:28:02.816Z,6.52
2023-01-10T15:31:08.179Z,6.54
2023-01-10T15:34:19.635Z,6.56
2023-01-10T15:37:33.918Z,6.51
2023-01-10T15:40:37.860Z,6.55
2023-01-10T15:43:40.442Z,6.52
2023-01-10T15:46:57.494Z,6.49
2023-01-10T15:50:00.375Z,6.46
2023-01-10T15:53:06.250Z,6.58
2023-01-10T15:56:13.467Z,6.53
2023-01-10T15:59:37.030Z,6.55
2023-01-10T16:02:40.714Z,6.55
2023-01-10T16:05:54.916Z,6.55
2023-01-10T16:09:04.100Z,6.40
2023-01-10T16:12:25.701Z,6.56
2023-01-10T16:15:36.057Z,6.58
2023-01-10T16:18:38.549Z,6.56
2023-01-10T16:21:44.394Z,6.57
2023-01-10T16:24:47.605Z,6.51
2023-01-10T16:27:50.213Z,6.54
2023-01-10T16:30:52.912Z,6.62
2023-01-10T16:33:55.399Z,6.66
2023-01-10T16:36:57.797Z,6.66
2023-01-10T16:40:00.505Z,6.66
2023-01-10T16:43:18.017Z,6.65
2023-01-10T16:46:20.802Z,6.67
2023-01-10T16:49:23.970Z,6.63
2023-01-10T16:52:26.730Z,6.72
2023-01-10T16:55:44.871Z,6.71
2023-01-10T16:58:51.406Z,6.75
2023-01-10T17:01:56.878Z,6.74
2023-01-10T17:04:59.469Z,6.66
2023-01-10T17:08:01.977Z,6.62
2023-01-10T17:11:07.274Z,6.71
2023-01-10T17:14:14.568Z,6.76
2023-01-10T17:17:17.177Z,6.72
2023-01-10T17:20:19.903Z,6.66
2023-01-10T17:23:23.459Z,6.71
2023-01-10T17:26:25.888Z,6.65
2023-01-10T17:29:30.296Z,6.67
2023-01-10T17:32:33.481Z,6.70
2023-01-10T17:35:39.840Z,6.81
2023-01-10T17:38:43.219Z,6.80
2023-01-10T17:41:45.595Z,6.75
2023-01-10T17:44:48.002Z,6.74
2023-01-10T17:47:52.775Z,6.67
2023-01-10T17:51:00.365Z,6.69
2023-01-10T17:54:03.022Z,6.75
2023-01-10T17:57:06.348Z,6.70
2023-01-10T18:00:09.655Z,6.60
2023-01-10T18:03:12.490Z,6.62
2023-01-10T18:06:23.476Z,6.59
2023-01-10T18:09:26.968Z,6.57
2023-01-10T18:12:29.634Z,6.54
2023-01-10T18:15:32.141Z,6.67
2023-01-10T18:18:34.662Z,6.68
2023-01-10T18:21:37.272Z,6.65
2023-01-10T18:24:39.946Z,6.63
2023-01-10T18:27:43.095Z,6.62
2023-01-10T18:30:45.751Z,6.64
2023-01-10T18:33:48.493Z,6.59
2023-01-10T18:36:51.189Z,6.63
2023-01-10T18:39:53.721Z,6.73
2023-01-10T18:42:58.453Z,6.60
2023-01-10T18:46:05.403Z,6.72
2023-01-10T18:49:08.672Z,6.64
2023-01-10T18:52:11.260Z,6.74
2023-01-10T18:55:13.842Z,6.77
2023-01-10T18:58:16.889Z,6.74
2023-01-10T19:01:22.209Z,6.79
2023-01-10T19:04:25.285Z,6.78
2023-01-10T19:07:28.327Z,6.81
2023-01-10T19:10:37.398Z,6.74
2023-01-10T19:13:54.045Z,6.73
2023-01-10T19:16:56.496Z,6.78
2023-01-10T19:19:59.045Z,6.84
2023-01-10T19:23:01.511Z,6.75
2023-01-10T19:26:04.262Z,6.76
2023-01-10T19:29:06.980Z,6.78
2023-01-10T19:32:09.761Z,6.72
2023-01-10T19:35:12.551Z,6.79
2023-01-10T19:38:15.019Z,6.81
2023-01-10T19:41:17.746Z,6.72
2023-01-10T19:44:20.236Z,6.72
2023-01-10T19:47:22.889Z,6.71
2023-01-10T19:50:25.971Z,6.71
2023-01-10T19:53:28.413Z,6.62
2023-01-10T19:56:31.654Z,6.61
2023-01-10T19:59:34.508Z,6.52
2023-01-10T20:02:37.413Z,6.56
2023-01-10T20:05:40.137Z,6.51
2023-01-10T20:08:44.462Z,6.53
2023-01-10T20:11:46.999Z,6.50
2023-01-10T20:14:51.807Z,6.41
2023-01-10T20:17:54.211Z,6.38
2023-01-10T20:20:57.064Z,6.46
2023-01-10T20:23:59.953Z,6.44
2023-01-10T20:27:09.367Z,6.45
2023-01-10T20:30:14.074Z,6.40
2023-01-10T20:33:16.616Z,6.43
2023-01-10T20:36:21.866Z,6.25
2023-01-10T20:39:25.793Z,6.35
2023-01-10T20:42:28.186Z,6.18
2023-01-10T20:45:30.679Z,6.12
2023-01-10T20:48:34.109Z,6.27
2023-01-10T20:51:37.502Z,6.24
2023-01-10T20:54:40.125Z,6.15
2023-01-10T20:57:42.725Z,6.24
2023-01-10T21:00:45.342Z,6.27
2023-01-10T21:03:48.352Z,6.25
2023-01-10T21:06:50.862Z,6.21
2023-01-10T21:09:53.677Z,6.23
2023-01-10T21:12:56.180Z,6.25
2023-01-10T21:15:58.713Z,6.19
2023-01-10T21:19:01.655Z,6.13
2023-01-10T21:22:04.289Z,6.12
2023-01-10T21:25:06.996Z,6.16
2023-01-10T21:28:10.043Z,6.08
2023-01-10T21:31:17.238Z,5.88
2023-01-10T21:34:20.187Z,5.96
2023-01-10T21:37:22.705Z,5.89
2023-01-10T21:40:27.318Z,5.73
2023-01-10T21:43:32.197Z,5.76
2023-01-10T21:46:34.934Z,5.67
2023-01-10T21:49:37.397Z,5.59
2023-01-10T21:52:40.552Z,5.39
2023-01-10T21:55:44.467Z,5.18
2023-01-10T21:58:48.154Z,5.25
2023-01-10T22:01:50.559Z,5.14
2023-01-10T22:04:54.894Z,5.04
2023-01-10T22:07:58.547Z,4.96
2023-01-10T22:11:00.959Z,5.05
2023-01-10T22:14:03.618Z,5.03
2023-01-10T22:17:06.218Z,5.04
2023-01-10T22:20:09.654Z,4.97
2023-01-10T22:23:13.123Z,4.98
2023-01-10T22:26:16.601Z,4.90
2023-01-10T22:29:20.670Z,4.84
2023-01-10T22:32:23.440Z,4.87
2023-01-10T22:35:28.749Z,4.81
2023-01-10T22:38:32.832Z,4.75
2023-01-10T22:41:35.620Z,4.86
2023-01-10T22:44:38.275Z,4.83
2023-01-10T22:47:40.767Z,4.80
2023-01-10T22:50:49.428Z,4.66
2023-01-10T22:53:53.760Z,4.58
2023-01-10T22:56:56.247Z,4.62
2023-01-10T22:59:58.682Z,4.68
2023-01-10T23:03:01.737Z,4.64
2023-01-10T23:06:04.577Z,4.53
2023-01-10T23:09:06.975Z,4.48
2023-01-10T23:12:09.326Z,4.40
2023-01-10T23:15:12.146Z,4.37
2023-01-10T23:18:16.635Z,4.35
2023-01-10T23:21:19.144Z,4.36
2023-01-10T23:24:21.821Z,4.38
2023-01-10T23:27:24.330Z,4.23
2023-01-10T23:30:26.841Z,4.23
2023-01-10T23:33:29.667Z,4.12
2023-01-10T23:36:32.148Z,4.07
2023-01-10T23:39:34.575Z,4.04
2023-01-10T23:42:37.161Z,4.18
2023-01-10T23:45:39.648Z,4.13
2023-01-10T23:48:43.249Z,4.11
2023-01-10T23:51:46.089Z,4.05
2023-01-10T23:54:48.654Z,4.07
2023-01-10T23:57:51.081Z,4.07
